Portada
METAR-TAF:

METAR-TAF

Aeropuertos :

Lamerd, Irán

latitud: 27-22-22N, longitud: 53-11-20E, altitud: 408 m

Observación

El informe se hizo hace 40 minutos, a las 12:00 UTC
Viento 6 kt del sur
Temperatura 34°C
Humedad 16%
Presión 1015 hPa
Visibilidad 10 km o más
sin nubes por debajo de 1500 m y sin presencia de cumulonimbus.

METAR: OISR 041200Z 19006KT CAVOK 34/05 Q1014 A2996 NOSIG

Hora: 17:10 (12:40 UTC)


TAF: falta

Observaciones y pronósticos meteorológicos de más de 4000 aeropuertos (mensajes METAR y TAF).

Los puntos amarillos y rojos representan las estaciones disponibles.

Ponga el ratón en el punto deseado para ver el nombre de la estación.

Haga clic para ver las observaciones y los pronósticos meteorológicos.

Para cambiar el mapa : haga clic en los botones verdes con una cruz de color negro para hacer un zoom, en el botón verde con un guión para alejar o en las flechas verdes para mapas adyacentes.


METAR-TAF: